Time;durP1;ratioP1;P1;durP2;ratioP2;P2;SDS_P1;SDS_P2;PMS_P1;PMS_P2;Temp;Humidity;BMP_temperature;BMP_pressure;BME280_temperature;BME280_humidity;BME280_pressure;Samples;Min_cycle;Max_cycle;Signal;HPM_P1;HPM_P2
2021/01/03 00:02:01;;;;;;;17.98;9.60;;;;;;;17.12;47.50;155622.27;1712316;83;21386;-71
2021/01/03 00:04:34;;;;;;;15.60;8.58;;;;;;;17.04;47.71;155599.84;1705407;83;21453;-70
2021/01/03 00:07:08;;;;;;;18.32;8.58;;;;;;;17.00;47.77;155590.63;1706765;83;21198;-73
2021/01/03 00:09:40;;;;;;;15.48;8.90;;;;;;;16.65;48.35;155498.34;1709610;83;21187;-71
2021/01/03 00:12:13;;;;;;;16.00;7.83;;;;;;;16.45;48.66;155445.66;1708420;83;21922;-69
2021/01/03 00:14:45;;;;;;;18.60;8.65;;;;;;;16.52;48.68;155462.78;1705095;83;21242;-71
2021/01/03 00:17:17;;;;;;;13.68;7.40;;;;;;;16.47;48.77;155450.94;1705015;83;21238;-73
2021/01/03 00:19:49;;;;;;;15.90;8.68;;;;;;;16.56;48.67;155473.30;1712366;83;21186;-71
2021/01/03 00:22:21;;;;;;;15.03;8.18;;;;;;;;;;1706642;83;21242;-73
2021/01/03 00:24:53;;;;;;;19.57;8.90;;;;;;;16.45;48.81;155444.31;1712081;83;21170;-70
2021/01/03 00:27:26;;;;;;;16.05;8.60;;;;;;;16.44;48.81;155441.67;1709197;83;21653;-71
2021/01/03 00:29:58;;;;;;;16.60;8.53;;;;;;;16.42;48.86;155436.44;1707686;82;21891;-71
2021/01/03 00:32:30;;;;;;;20.52;10.80;;;;;;;16.43;48.93;155439.08;1711684;82;21708;-72
2021/01/03 00:35:05;;;;;;;14.95;8.35;;;;;;;16.40;48.98;155431.16;1703184;84;21381;-70
2021/01/03 00:37:38;;;;;;;15.55;8.88;;;;;;;16.40;48.92;155432.45;1702949;84;21710;-70
2021/01/03 00:40:14;;;;;;;18.67;8.48;;;;;;;16.49;48.90;155454.88;1704599;83;21388;-72
2021/01/03 00:42:45;;;;;;;18.05;8.75;;;;;;;;;;1705663;83;21294;-73
2021/01/03 00:45:17;;;;;;;14.53;7.92;;;;;;;16.60;48.65;155485.20;1709136;83;21225;-73
2021/01/03 00:47:50;;;;;;;18.35;9.30;;;;;;;16.56;48.72;155473.30;1706725;83;21297;-70
2021/01/03 00:50:22;;;;;;;19.15;8.93;;;;;;;16.52;48.77;155462.78;1709602;83;21205;-74
2021/01/03 00:52:55;;;;;;;16.02;8.43;;;;;;;16.59;48.75;155482.56;1707405;83;21188;-71
2021/01/03 00:55:27;;;;;;;17.42;8.53;;;;;;;16.60;48.79;155483.86;1707139;83;21721;-70
2021/01/03 00:58:00;;;;;;;18.05;8.63;;;;;;;16.62;48.76;155489.14;1705738;83;21262;-72
2021/01/03 01:00:33;;;;;;;17.98;8.70;;;;;;;16.61;48.79;155487.78;1710748;83;21248;-71
2021/01/03 01:03:06;;;;;;;18.95;8.78;;;;;;;16.60;48.82;155485.20;1704872;83;21218;-70
2021/01/03 01:05:40;;;;;;;17.12;8.93;;;;;;;16.75;48.60;155523.41;1709465;83;21176;-68
2021/01/03 01:08:13;;;;;;;20.23;8.30;;;;;;;16.78;48.60;155531.33;1710530;83;21190;-74
2021/01/03 01:10:45;;;;;;;14.87;8.65;;;;;;;16.60;48.81;155485.20;1708892;83;21705;-70
2021/01/03 01:13:18;;;;;;;16.12;7.67;;;;;;;16.65;48.82;155498.34;1706789;83;21395;-71
2021/01/03 01:15:50;;;;;;;14.03;7.60;;;;;;;16.72;48.71;155515.48;1703099;84;21781;-73
2021/01/03 01:18:23;;;;;;;16.02;7.55;;;;;;;16.75;48.64;155524.70;1703454;84;21207;-73
2021/01/03 01:20:55;;;;;;;13.43;8.03;;;;;;;16.71;48.75;155512.84;1703589;84;21392;-69
2021/01/03 01:23:28;;;;;;;19.42;9.13;;;;;;;16.51;49.02;155461.44;1705224;83;21392;-71
2021/01/03 01:26:00;;;;;;;17.27;9.08;;;;;;;16.46;49.19;155448.30;1710222;83;21186;-69
2021/01/03 01:28:33;;;;;;;15.58;8.65;;;;;;;16.52;48.99;155464.08;1708134;83;21355;-70
2021/01/03 01:31:05;;;;;;;18.32;9.08;;;;;;;16.46;48.75;155446.95;1707915;83;21205;-70
2021/01/03 01:33:37;;;;;;;17.75;9.55;;;;;;;16.46;48.45;155446.95;1707349;83;21278;-70
2021/01/03 01:36:10;;;;;;;17.05;8.45;;;;;;;16.38;48.25;155427.17;1709316;83;21216;-71
2021/01/03 01:38:43;;;;;;;18.82;8.85;;;;;;;16.15;48.44;155365.22;1707063;83;21356;-70
2021/01/03 01:41:15;;;;;;;17.27;9.25;;;;;;;16.08;48.54;155346.81;1705072;83;21364;-72
2021/01/03 01:43:48;;;;;;;18.85;9.20;;;;;;;16.24;48.15;155388.94;1708795;83;21408;-70
2021/01/03 01:46:39;;;;;;;20.25;9.28;;;;;;;16.13;48.19;155358.66;1709039;83;21860;-70
2021/01/03 01:49:13;;;;;;;20.15;9.93;;;;;;;16.05;48.12;155337.53;1706723;83;21187;-70
2021/01/03 01:51:49;;;;;;;24.43;10.40;;;;;;;15.95;48.29;155312.56;1706196;83;21217;-70
2021/01/03 01:54:29;;;;;;;18.62;9.00;;;;;;;15.95;48.44;155312.56;1708467;83;21408;-70
2021/01/03 01:57:18;;;;;;;19.12;9.85;;;;;;;15.96;48.48;155313.84;1709869;83;21793;-71
2021/01/03 02:00:07;;;;;;;21.70;9.90;;;;;;;15.97;48.38;155317.78;1695599;83;21418;-69
2021/01/03 02:02:59;;;;;;;17.95;8.58;;;;;;;15.97;48.34;155317.78;1711282;83;21733;-74
2021/01/03 02:05:48;;;;;;;16.15;9.15;;;;;;;15.98;48.51;155320.41;1706118;83;21387;-71
2021/01/03 02:08:43;;;;;;;19.73;9.50;;;;;;;15.94;48.53;155308.56;1704610;83;21266;-70
2021/01/03 02:11:20;;;;;;;16.50;8.43;;;;;;;15.89;48.68;155295.42;1712622;82;21246;-72
2021/01/03 02:13:55;;;;;;;17.32;9.60;;;;;;;15.88;48.81;155294.08;1692489;82;21147;-71
2021/01/03 02:16:34;;;;;;;18.92;9.80;;;;;;;16.06;48.78;155340.19;1663617;85;21219;-70
2021/01/03 02:19:11;;;;;;;17.17;10.08;;;;;;;16.02;49.03;155329.69;1665202;85;21226;-70
2021/01/03 02:22:00;;;;;;;16.42;8.75;;;;;;;16.11;48.99;155353.38;1657752;86;21289;-71
2021/01/03 02:24:45;;;;;;;14.80;7.83;;;;;;;16.14;49.02;155362.59;1658592;86;22351;-71
2021/01/03 02:27:22;;;;;;;16.45;9.08;;;;;;;16.01;49.27;155328.33;1711984;83;21303;-70
2021/01/03 02:29:55;;;;;;;16.62;9.43;;;;;;;15.97;49.62;155317.78;1705135;83;21197;-74
2021/01/03 02:32:27;;;;;;;15.40;9.25;;;;;;;16.07;49.48;155344.16;1709725;83;21356;-71
2021/01/03 02:35:00;;;;;;;17.57;8.65;;;;;;;16.11;49.44;155354.67;1710166;83;21327;-71
2021/01/03 02:37:39;;;;;;;16.80;8.58;;;;;;;16.24;49.27;155388.94;1654966;83;21181;-69
2021/01/03 02:40:24;;;;;;;19.07;9.55;;;;;;;16.34;49.19;155415.33;1705721;83;21191;-69
2021/01/03 02:42:56;;;;;;;15.25;9.33;;;;;;;16.27;49.27;155398.14;1707480;83;21174;-70
2021/01/03 02:45:32;;;;;;;17.27;10.15;;;;;;;16.18;49.44;155371.80;1708207;83;21193;-69
2021/01/03 02:48:11;;;;;;;16.00;8.40;;;;;;;16.26;49.35;155395.50;1714391;83;21290;-71
2021/01/03 02:50:43;;;;;;;16.87;8.95;;;;;;;16.36;49.23;155420.59;1713643;83;21186;-69
2021/01/03 02:53:16;;;;;;;14.38;8.10;;;;;;;16.32;49.27;155410.05;1710929;83;21256;-72
2021/01/03 02:55:48;;;;;;;18.48;10.00;;;;;;;16.24;49.55;155387.62;1711588;83;21257;-71
2021/01/03 02:58:21;;;;;;;19.77;10.32;;;;;;;16.03;49.99;155332.31;1715086;83;21751;-71
2021/01/03 03:00:54;;;;;;;14.80;8.30;;;;;;;16.20;49.73;155377.08;1712532;83;21285;-72
2021/01/03 03:03:27;;;;;;;19.77;9.68;;;;;;;16.34;49.54;155415.33;1673552;85;21194;-70
2021/01/03 03:05:59;;;;;;;15.13;8.88;;;;;;;16.32;49.49;155410.05;1685615;83;21388;-70
2021/01/03 03:08:31;;;;;;;20.23;10.23;;;;;;;16.22;49.76;155382.36;1710535;84;21237;-68
2021/01/03 03:11:04;;;;;;;17.67;10.53;;;;;;;16.24;49.68;155388.94;1712648;83;22081;-70
2021/01/03 03:13:36;;;;;;;17.67;9.40;;;;;;;16.03;50.03;155333.61;1718936;83;21234;-70
2021/01/03 03:16:09;;;;;;;18.82;10.05;;;;;;;15.80;50.70;155271.69;1716203;83;21766;-70
2021/01/03 03:18:41;;;;;;;18.27;9.63;;;;;;;16.31;49.87;155408.75;1719216;83;21358;-70
2021/01/03 03:21:19;;;;;;;21.68;10.72;;;;;;;16.14;50.02;155362.59;1719771;83;21246;-71
2021/01/03 03:23:52;;;;;;;19.25;9.50;;;;;;;16.08;50.21;155346.81;1719377;83;21135;-72
2021/01/03 03:26:24;;;;;;;20.32;11.12;;;;;;;16.20;50.01;155377.08;1712800;83;21249;-72
2021/01/03 03:28:57;;;;;;;19.75;9.93;;;;;;;16.04;50.41;155334.91;1710115;84;21164;-71
2021/01/03 03:31:31;;;;;;;16.77;9.00;;;;;;;16.05;50.36;155338.89;1709162;83;21205;-71
2021/01/03 03:34:03;;;;;;;19.57;10.40;;;;;;;16.26;50.00;155395.50;1710339;84;21265;-70
2021/01/03 03:36:37;;;;;;;20.50;10.43;;;;;;;16.26;49.98;155395.50;1709745;84;21205;-71
2021/01/03 03:39:10;;;;;;;15.48;9.85;;;;;;;16.38;49.81;155427.17;1710712;84;21412;-70
2021/01/03 03:41:42;;;;;;;21.07;11.12;;;;;;;16.41;49.72;155435.09;1710173;83;21529;-70
2021/01/03 03:44:15;;;;;;;20.00;10.40;;;;;;;16.12;50.20;155357.31;1709847;84;21165;-71
2021/01/03 03:46:57;;;;;;;18.62;8.93;;;;;;;16.23;50.17;155385.00;1709319;82;21142;-70
2021/01/03 03:49:30;;;;;;;19.35;9.70;;;;;;;16.28;50.05;155399.48;1702332;84;21222;-71
2021/01/03 03:52:05;;;;;;;19.82;9.13;;;;;;;16.14;50.46;155362.59;1709958;83;21166;-72
2021/01/03 03:54:37;;;;;;;18.48;9.70;;;;;;;16.16;50.33;155367.88;1706304;84;21190;-71
2021/01/03 03:57:10;;;;;;;20.35;9.70;;;;;;;16.17;50.21;155370.50;1705479;84;21329;-69
2021/01/03 03:59:43;;;;;;;15.28;8.63;;;;;;;16.03;50.20;155333.61;1690427;84;21179;-71
2021/01/03 04:02:15;;;;;;;20.08;9.00;;;;;;;16.28;50.02;155399.48;1696230;84;21190;-70
2021/01/03 04:04:47;;;;;;;17.73;9.68;;;;;;;15.94;50.53;155308.56;1706724;83;21328;-70
2021/01/03 04:07:19;;;;;;;19.10;9.63;;;;;;;16.16;50.26;155366.52;1705945;83;21213;-72
2021/01/03 04:09:52;;;;;;;18.80;10.68;;;;;;;16.26;50.06;155392.91;1686945;84;21226;-71
2021/01/03 04:12:24;;;;;;;21.50;10.00;;;;;;;16.38;49.93;155427.17;1699564;84;21292;-70
2021/01/03 04:14:57;;;;;;;22.22;10.78;;;;;;;16.34;50.00;155415.33;1705997;84;21192;-70
2021/01/03 04:17:29;;;;;;;17.73;9.43;;;;;;;16.45;49.90;155444.31;1693005;84;21743;-71
2021/01/03 04:20:02;;;;;;;22.62;9.98;;;;;;;16.54;49.75;155468.06;1697571;84;21195;-71
2021/01/03 04:22:34;;;;;;;20.10;10.55;;;;;;;16.56;49.79;155473.30;1697055;83;21233;-71
2021/01/03 04:25:08;;;;;;;18.15;9.30;;;;;;;16.55;49.76;155470.72;1702697;83;21193;-70
2021/01/03 04:27:41;;;;;;;17.02;8.58;;;;;;;16.23;50.21;155386.28;1707368;83;21277;-72
2021/01/03 04:30:15;;;;;;;17.07;8.83;;;;;;;16.11;50.45;155354.67;1714162;83;21312;-70
2021/01/03 04:32:47;;;;;;;19.23;9.25;;;;;;;16.19;50.54;155374.44;1711311;83;21207;-69
2021/01/03 04:35:20;;;;;;;16.85;8.08;;;;;;;15.92;50.74;155304.64;1710363;83;21222;-70
2021/01/03 04:37:54;;;;;;;13.50;7.55;;;;;;;15.61;51.33;155221.66;1707820;83;21242;-72
2021/01/03 04:40:31;;;;;;;17.02;7.85;;;;;;;15.89;50.89;155296.72;1714512;83;21745;-69
2021/01/03 04:43:04;;;;;;;18.57;9.13;;;;;;;15.89;50.79;155296.72;1714074;83;21154;-70
2021/01/03 04:45:39;;;;;;;16.67;7.78;;;;;;;15.94;50.82;155308.56;1705747;83;21324;-69
2021/01/03 04:48:29;;;;;;;17.20;8.60;;;;;;;16.13;50.68;155358.66;1705581;83;21245;-74
2021/01/03 04:51:21;;;;;;;18.40;8.45;;;;;;;16.16;50.61;155366.52;1706038;83;21344;-71
2021/01/03 04:54:04;;;;;;;15.68;7.87;;;;;;;16.24;50.59;155388.94;1707539;83;21347;-72
2021/01/03 04:56:48;;;;;;;15.98;8.13;;;;;;;16.11;50.56;155354.67;1708366;83;21591;-71
2021/01/03 04:59:37;;;;;;;18.62;10.00;;;;;;;16.19;50.53;155375.78;1707056;83;21721;-70
2021/01/03 05:02:42;;;;;;;14.95;7.72;;;;;;;16.13;50.70;155359.95;1707538;83;21239;-70
2021/01/03 05:05:34;;;;;;;18.57;9.20;;;;;;;16.36;50.50;155420.59;1707834;83;21242;-72
2021/01/03 05:08:36;;;;;;;16.30;8.60;;;;;;;16.49;50.30;155456.16;1706734;83;21285;-69
2021/01/03 05:11:17;;;;;;;15.43;8.73;;;;;;;16.35;50.51;155417.97;1704204;83;21324;-70
2021/01/03 05:14:12;;;;;;;18.62;7.35;;;;;;;16.25;50.74;155391.56;1708667;82;21701;-70
2021/01/03 05:16:44;;;;;;;16.93;8.65;;;;;;;16.39;50.33;155429.81;1726122;82;21344;-71
2021/01/03 05:19:16;;;;;;;16.77;8.20;;;;;;;16.39;50.42;155429.81;1700412;84;21360;-70
2021/01/03 05:21:54;;;;;;;16.97;7.97;;;;;;;16.43;50.31;155440.38;1702284;83;21324;-70
2021/01/03 05:24:28;;;;;;;11.53;6.17;;;;;;;16.34;50.30;155415.33;1712448;83;21359;-70
2021/01/03 05:27:05;;;;;;;14.38;6.70;;;;;;;16.13;50.49;155359.95;1703693;83;21754;-73
2021/01/03 05:29:37;;;;;;;11.05;6.53;;;;;;;16.08;50.46;155346.81;1702963;83;21301;-70
2021/01/03 05:32:10;;;;;;;11.00;6.30;;;;;;;16.08;50.50;155345.45;1708502;83;21400;-70
2021/01/03 05:34:45;;;;;;;10.23;5.55;;;;;;;15.95;50.72;155312.56;1695072;83;21388;-70
2021/01/03 05:37:28;;;;;;;14.00;6.45;;;;;;;16.08;50.55;155345.45;1710528;83;21225;-73
2021/01/03 05:40:01;;;;;;;12.95;6.35;;;;;;;16.16;50.53;155367.88;1713086;83;21736;-74
2021/01/03 05:42:37;;;;;;;13.85;7.17;;;;;;;15.96;51.15;155315.19;1715250;83;21307;-71
2021/01/03 05:45:27;;;;;;;14.55;6.30;;;;;;;16.07;50.83;155344.16;1706319;83;21383;-70
2021/01/03 05:48:01;;;;;;;13.72;6.50;;;;;;;15.98;50.86;155320.41;1707726;83;21357;-71
2021/01/03 05:50:36;;;;;;;12.68;6.40;;;;;;;15.99;51.00;155321.77;1718761;83;21239;-72
2021/01/03 05:53:15;;;;;;;14.85;6.37;;;;;;;16.05;50.80;155337.53;1720154;83;21200;-70
2021/01/03 05:56:01;;;;;;;12.60;6.72;;;;;;;16.08;50.95;155345.45;1711511;83;21238;-71
2021/01/03 05:58:45;;;;;;;13.65;6.08;;;;;;;16.05;50.99;155338.89;1717317;83;21153;-71
2021/01/03 06:01:26;;;;;;;13.08;6.65;;;;;;;16.07;51.18;155344.16;1709887;84;21201;-72
2021/01/03 06:04:21;;;;;;;16.10;6.53;;;;;;;15.94;51.57;155308.56;1713500;83;21707;-70
2021/01/03 06:07:10;;;;;;;14.40;6.20;;;;;;;15.83;51.74;155279.59;1628667;86;21198;-71
2021/01/03 06:09:44;;;;;;;13.68;6.83;;;;;;;16.14;51.62;155362.59;1656477;85;21222;-73
2021/01/03 06:12:21;;;;;;;16.05;7.55;;;;;;;16.25;51.06;155390.28;1663988;85;21222;-70
2021/01/03 06:15:03;;;;;;;12.20;6.95;;;;;;;16.33;50.93;155414.03;1674318;85;21187;-71
2021/01/03 06:17:39;;;;;;;14.30;7.25;;;;;;;16.20;51.05;155377.08;1666490;85;21241;-72
2021/01/03 06:20:24;;;;;;;16.93;6.97;;;;;;;16.42;50.82;155437.73;1686075;84;21223;-71
2021/01/03 06:23:14;;;;;;;17.75;7.60;;;;;;;16.48;50.77;155452.23;1689267;84;21253;-72
2021/01/03 06:25:56;;;;;;;13.70;6.55;;;;;;;16.54;50.63;155468.06;1691982;84;21238;-72
2021/01/03 06:28:50;;;;;;;14.10;6.87;;;;;;;16.57;50.50;155477.28;1689838;84;21245;-74
2021/01/03 06:31:46;;;;;;;22.07;7.50;;;;;;;16.62;50.56;155489.14;1683685;84;21360;-71
2021/01/03 06:34:42;;;;;;;20.88;8.80;;;;;;;16.69;50.73;155507.56;1692479;84;21324;-72
2021/01/03 06:37:43;;;;;;;18.17;8.15;;;;;;;16.71;50.81;155514.19;1698397;84;21321;-77
2021/01/03 06:40:38;;;;;;;19.62;8.48;;;;;;;16.73;50.58;155518.13;1680476;84;21231;-70
2021/01/03 06:43:44;;;;;;;21.27;7.78;;;;;;;16.67;50.59;155503.63;1689344;84;21324;-70
2021/01/03 06:46:45;;;;;;;18.17;7.83;;;;;;;16.65;50.58;155497.06;1686686;84;21858;-70
2021/01/03 06:49:52;;;;;;;27.17;9.08;;;;;;;16.69;50.53;155507.56;1691449;84;21218;-70
2021/01/03 06:52:47;;;;;;;16.90;7.75;;;;;;;16.74;50.43;155520.77;1708150;83;21183;-71
2021/01/03 06:55:35;;;;;;;21.52;8.13;;;;;;;16.82;50.25;155541.84;1708649;83;21186;-71
2021/01/03 06:58:45;;;;;;;20.45;7.80;;;;;;;16.76;50.44;155526.06;1686442;84;21705;-70
2021/01/03 07:01:34;;;;;;;19.73;7.42;;;;;;;16.63;50.59;155493.08;1701293;84;21288;-70
2021/01/03 07:04:15;;;;;;;22.02;8.93;;;;;;;16.60;50.92;155483.86;1708693;83;21389;-71
2021/01/03 07:06:48;;;;;;;13.88;7.08;;;;;;;16.68;50.80;155506.28;1705621;84;21346;-70
2021/01/03 07:09:20;;;;;;;15.83;7.17;;;;;;;16.71;50.89;155514.19;1708013;83;21685;-76
2021/01/03 07:11:57;;;;;;;14.25;6.55;;;;;;;16.79;50.99;155533.92;1702525;83;21229;-74
2021/01/03 07:14:46;;;;;;;12.37;6.15;;;;;;;16.86;51.00;155553.70;1711765;83;22090;-71
2021/01/03 07:17:18;;;;;;;16.37;7.28;;;;;;;16.65;50.99;155498.34;1705152;83;21249;-72
2021/01/03 07:20:00;;;;;;;19.57;7.25;;;;;;;16.87;50.63;155555.05;1675445;83;21221;-72
2021/01/03 07:22:38;;;;;;;;;;;;;;;16.92;50.76;155569.55;1687263;84;21337;-70
2021/01/03 07:25:24;;;;;;;13.95;6.78;;;;;;;17.01;50.75;155593.27;1701876;83;20591;-72
2021/01/03 07:28:19;;;;;;;16.67;7.20;;;;;;;17.04;50.71;155599.84;1703217;83;21998;-70
2021/01/03 07:31:14;;;;;;;12.03;6.10;;;;;;;17.03;50.75;155598.55;1688742;84;21227;-70
2021/01/03 07:34:13;;;;;;;16.20;7.50;;;;;;;16.93;50.62;155570.84;1735828;82;21915;-70
2021/01/03 07:37:21;;;;;;;13.30;6.97;;;;;;;16.94;50.80;155573.48;1725020;82;21378;-70
2021/01/03 07:40:15;;;;;;;14.28;6.75;;;;;;;16.96;50.86;155578.77;1696185;82;21686;-71
2021/01/03 07:42:54;;;;;;;13.25;6.70;;;;;;;17.06;50.99;155605.13;1715947;82;21198;-70
2021/01/03 07:45:37;;;;;;;12.47;6.15;;;;;;;17.03;50.74;155597.20;1718287;82;21222;-71
2021/01/03 07:48:40;;;;;;;13.20;6.10;;;;;;;17.09;50.66;155614.34;1727587;82;21213;-72
2021/01/03 07:51:13;;;;;;;12.53;7.12;;;;;;;16.96;50.90;155578.77;1725357;82;21368;-71
2021/01/03 07:53:45;;;;;;;14.87;6.53;;;;;;;17.05;50.78;155602.48;1690528;84;21277;-70
2021/01/03 07:56:23;;;;;;;12.50;6.35;;;;;;;16.95;50.76;155577.47;1709523;84;21281;-70
2021/01/03 07:58:58;;;;;;;11.55;6.20;;;;;;;16.95;50.70;155577.47;1672591;84;21209;-71
2021/01/03 08:01:34;;;;;;;14.98;7.50;;;;;;;17.05;50.66;155602.48;1710561;84;21182;-72
2021/01/03 08:04:29;;;;;;;19.07;6.87;;;;;;;17.14;50.45;155626.20;1710613;84;21237;-70
2021/01/03 08:07:08;;;;;;;15.18;6.85;;;;;;;17.21;50.03;155645.98;1710937;84;21720;-70
2021/01/03 08:09:40;;;;;;;17.90;8.03;;;;;;;17.17;49.85;155634.13;1710152;84;21303;-71
2021/01/03 08:12:33;;;;;;;14.55;6.60;;;;;;;17.27;49.99;155663.14;1709758;84;21836;-72
2021/01/03 08:15:12;;;;;;;16.25;7.33;;;;;;;17.21;49.71;155647.34;1691272;84;21990;-73
2021/01/03 08:17:45;;;;;;;17.00;7.47;;;;;;;17.19;49.44;155642.06;1682932;84;21376;-71
2021/01/03 08:20:26;;;;;;;11.65;6.22;;;;;;;17.27;49.45;155661.84;1698592;84;21350;-70
2021/01/03 08:23:24;;;;;;;13.68;6.65;;;;;;;17.39;49.27;155693.55;1710052;84;21242;-69
2021/01/03 08:26:07;;;;;;;15.00;7.00;;;;;;;17.39;49.30;155694.84;1620537;88;21657;-71
2021/01/03 08:28:47;;;;;;;11.85;6.03;;;;;;;17.43;49.25;155705.41;1697987;83;21249;-72
2021/01/03 08:31:19;;;;;;;9.78;5.87;;;;;;;17.52;49.00;155729.13;1708068;83;21213;-70
2021/01/03 08:33:52;;;;;;;10.18;5.58;;;;;;;17.66;48.75;155764.73;1714127;83;21382;-75
2021/01/03 08:36:36;;;;;;;9.63;5.03;;;;;;;17.70;48.70;155775.30;1712330;83;21676;-71
2021/01/03 08:39:13;;;;;;;9.28;5.50;;;;;;;17.60;48.70;155748.92;1711146;83;21189;-70
2021/01/03 08:42:06;;;;;;;12.90;6.90;;;;;;;17.48;48.43;155718.56;1711643;83;21359;-71
2021/01/03 08:44:44;;;;;;;14.20;6.00;;;;;;;17.45;48.47;155709.34;1711575;83;21277;-71
2021/01/03 08:47:39;;;;;;;10.48;5.55;;;;;;;17.47;48.75;155714.63;1713562;83;21153;-71
2021/01/03 08:50:22;;;;;;;9.53;6.05;;;;;;;17.60;48.39;155748.92;1712796;83;21816;-71
2021/01/03 08:52:58;;;;;;;9.75;6.28;;;;;;;17.58;48.40;155744.98;1712364;83;21144;-70
2021/01/03 08:55:34;;;;;;;11.12;5.85;;;;;;;17.57;48.42;155742.34;1712023;83;21229;-70
2021/01/03 08:58:16;;;;;;;10.72;5.78;;;;;;;17.61;48.37;155752.86;1709019;83;21248;-71
2021/01/03 09:00:55;;;;;;;12.30;6.50;;;;;;;17.75;48.21;155789.81;1711635;83;21249;-71
2021/01/03 09:03:28;;;;;;;10.45;6.00;;;;;;;17.75;48.16;155789.81;1686690;83;21184;-72
2021/01/03 09:06:00;;;;;;;10.65;6.40;;;;;;;17.68;48.39;155770.02;1710215;83;21237;-72
2021/01/03 09:08:36;;;;;;;12.90;6.60;;;;;;;17.64;48.53;155760.80;1712167;83;21169;-73
2021/01/03 09:11:25;;;;;;;66.97;30.00;;;;;;;17.61;48.46;155752.86;1711766;83;21421;-73
2021/01/03 09:14:37;;;;;;;14.00;8.03;;;;;;;17.64;48.57;155760.80;1710991;83;21858;-73
2021/01/03 09:17:23;;;;;;;13.40;7.42;;;;;;;17.63;48.54;155756.84;1712183;83;21377;-72
2021/01/03 09:20:26;;;;;;;10.18;5.70;;;;;;;17.68;48.65;155770.02;1659822;85;21174;-71
2021/01/03 09:23:13;;;;;;;13.03;8.10;;;;;;;17.81;48.24;155804.31;1642240;85;21222;-70
2021/01/03 09:25:48;;;;;;;12.43;7.83;;;;;;;17.67;48.35;155767.38;1671310;84;21233;-78
2021/01/03 09:28:28;;;;;;;14.15;7.78;;;;;;;17.60;48.40;155750.22;1660729;84;21265;-77
2021/01/03 09:31:25;;;;;;;13.73;7.37;;;;;;;17.68;48.38;155770.02;1673468;84;21245;-83
2021/01/03 09:34:13;;;;;;;12.93;7.10;;;;;;;17.67;48.52;155767.38;1675022;84;21235;-77
2021/01/03 09:37:18;;;;;;;12.35;6.80;;;;;;;17.52;48.67;155729.13;1698041;84;21219;-76
2021/01/03 09:40:19;;;;;;;10.15;5.92;;;;;;;17.61;48.60;155752.86;1703227;84;21356;-80
2021/01/03 09:43:28;;;;;;;17.17;8.05;;;;;;;17.26;49.03;155659.20;1677432;84;21722;-70
2021/01/03 09:46:19;;;;;;;13.55;7.90;;;;;;;17.50;48.62;155723.84;1666057;84;21214;-72
2021/01/03 09:48:53;;;;;;;16.05;7.83;;;;;;;17.68;48.58;155771.36;1662727;85;21257;-75
2021/01/03 09:51:38;;;;;;;13.78;7.42;;;;;;;17.62;48.44;155755.50;1672943;84;21734;-76
2021/01/03 09:54:18;;;;;;;15.88;7.83;;;;;;;17.68;48.56;155771.36;1704861;83;21323;-77
2021/01/03 09:56:52;;;;;;;14.80;8.13;;;;;;;17.86;48.39;155817.53;1715541;83;21194;-79
2021/01/03 09:59:24;;;;;;;16.95;8.00;;;;;;;17.92;48.18;155834.69;1714376;83;21398;-74
2021/01/03 10:02:08;;;;;;;16.70;8.90;;;;;;;18.02;48.09;155859.72;1715042;83;21224;-77
2021/01/03 10:04:45;;;;;;;14.90;8.53;;;;;;;18.13;48.11;155890.09;1706690;82;21190;-78
2021/01/03 10:07:25;;;;;;;15.63;8.83;;;;;;;18.25;48.02;155921.83;1713854;82;21394;-78
2021/01/03 10:10:03;;;;;;;12.78;7.45;;;;;;;18.28;47.96;155929.75;1715091;82;21225;-78
2021/01/03 10:12:41;;;;;;;13.22;7.62;;;;;;;18.21;47.75;155911.20;1715123;82;21184;-76
2021/01/03 10:15:24;;;;;;;12.65;7.20;;;;;;;17.96;47.97;155845.22;1715470;82;21224;-77
2021/01/03 10:18:00;;;;;;;12.55;7.17;;;;;;;18.22;47.96;155913.89;1715100;83;21804;-76
2021/01/03 10:20:48;;;;;;;10.05;5.92;;;;;;;18.35;47.90;155948.22;1713689;82;21189;-77
2021/01/03 10:23:36;;;;;;;262.05;119.77;;;;;;;18.36;47.62;155950.86;1715099;82;21133;-75
2021/01/03 10:26:28;;;;;;;169.13;101.47;;;;;;;18.31;47.66;155937.64;1715444;82;21374;-73
2021/01/03 10:29:03;;;;;;;26.30;16.45;;;;;;;18.34;47.74;155945.56;1712868;82;21185;-79
2021/01/03 10:31:51;;;;;;;12.65;6.92;;;;;;;18.11;47.65;155884.81;1715118;82;22217;-78
2021/01/03 10:34:25;;;;;;;12.03;6.40;;;;;;;18.07;47.80;155872.94;1713578;83;21213;-83
2021/01/03 10:37:01;;;;;;;10.38;6.05;;;;;;;17.98;47.94;155849.20;1714098;82;21262;-76
2021/01/03 10:39:33;;;;;;;10.65;6.28;;;;;;;17.87;48.08;155821.47;1714420;82;21277;-79
2021/01/03 10:42:07;;;;;;;13.65;6.30;;;;;;;17.95;47.96;155842.56;1712859;82;21176;-77
2021/01/03 10:44:41;;;;;;;11.50;6.45;;;;;;;18.23;47.72;155917.83;1714986;83;21248;-75
2021/01/03 10:47:14;;;;;;;9.78;6.30;;;;;;;18.11;47.72;155884.81;1713760;82;21219;-74
2021/01/03 10:49:46;;;;;;;15.98;7.17;;;;;;;18.30;47.80;155936.34;1713274;83;21180;-73
2021/01/03 10:52:19;;;;;;;9.55;5.70;;;;;;;18.34;47.84;155946.88;1714141;82;21804;-74
2021/01/03 10:54:52;;;;;;;10.25;5.08;;;;;;;17.90;47.72;155829.41;1715018;83;21818;-73
2021/01/03 10:57:24;;;;;;;8.43;5.12;;;;;;;18.08;47.53;155876.87;1713861;83;21864;-74
2021/01/03 10:59:57;;;;;;;7.42;4.80;;;;;;;18.03;47.45;155862.38;1713564;82;21271;-77
2021/01/03 11:02:29;;;;;;;52.88;27.85;;;;;;;18.17;47.30;155900.63;1713107;82;21236;-76
2021/01/03 11:05:02;;;;;;;82.40;47.45;;;;;;;18.27;47.31;155928.41;1713243;82;21209;-75
2021/01/03 11:07:35;;;;;;;25.27;16.93;;;;;;;18.40;47.02;155961.44;1713921;83;21208;-79
2021/01/03 11:10:10;;;;;;;10.58;6.90;;;;;;;18.37;47.08;155954.80;1713616;82;21228;-75
2021/01/03 11:12:43;;;;;;;10.45;7.78;;;;;;;18.10;47.41;155882.17;1714497;82;21299;-78
2021/01/03 11:15:17;;;;;;;11.57;7.08;;;;;;;18.10;47.34;155880.87;1713165;82;21236;-75
2021/01/03 11:17:52;;;;;;;7.25;5.17;;;;;;;18.14;47.26;155894.03;1712773;82;21755;-76
2021/01/03 11:20:25;;;;;;;8.38;5.20;;;;;;;18.18;47.23;155903.27;1682104;83;21228;-80
2021/01/03 11:22:58;;;;;;;7.53;4.50;;;;;;;18.08;47.37;155875.58;1713886;82;21204;-73
2021/01/03 11:25:31;;;;;;;7.20;4.03;;;;;;;18.15;47.30;155896.69;1715257;83;21789;-73
2021/01/03 11:28:06;;;;;;;8.88;5.58;;;;;;;18.04;47.52;155865.00;1715176;82;21209;-75
2021/01/03 11:30:38;;;;;;;8.85;6.35;;;;;;;18.23;47.41;155916.53;1714917;83;21335;-74
2021/01/03 11:33:11;;;;;;;10.68;5.80;;;;;;;18.31;47.29;155937.64;1714596;82;21244;-72
2021/01/03 11:35:44;;;;;;;5.97;3.90;;;;;;;18.30;47.31;155935.00;1715036;82;21177;-73
2021/01/03 11:38:17;;;;;;;7.30;4.17;;;;;;;18.17;47.24;155900.63;1714762;82;21216;-76
2021/01/03 11:40:50;;;;;;;9.13;5.22;;;;;;;18.15;47.35;155895.39;1682549;84;21956;-78
2021/01/03 11:43:22;;;;;;;7.67;5.15;;;;;;;18.27;47.22;155927.11;1714478;82;21712;-74
2021/01/03 11:45:55;;;;;;;7.50;4.83;;;;;;;18.28;47.25;155929.75;1715140;82;21188;-76
2021/01/03 11:48:27;;;;;;;11.48;5.87;;;;;;;18.22;47.38;155913.89;1715161;82;21224;-79
2021/01/03 11:51:00;;;;;;;8.75;5.17;;;;;;;18.16;47.47;155899.33;1682870;84;21331;-75
2021/01/03 11:53:33;;;;;;;6.33;4.47;;;;;;;18.20;47.46;155909.91;1715731;82;21906;-77
2021/01/03 11:56:15;;;;;;;7.72;4.12;;;;;;;18.27;47.35;155927.11;1690158;83;21425;-78
2021/01/03 11:58:50;;;;;;;8.50;5.00;;;;;;;18.24;47.49;155919.19;1728898;82;21366;-76
2021/01/03 12:01:26;;;;;;;7.67;4.30;;;;;;;18.35;47.46;155948.22;1729125;82;21327;-76
2021/01/03 12:03:58;;;;;;;8.25;3.98;;;;;;;18.45;47.47;155975.95;1729236;83;21220;-76
2021/01/03 12:06:32;;;;;;;6.37;4.08;;;;;;;18.48;47.41;155982.53;1729485;81;21881;-74
2021/01/03 12:09:06;;;;;;;7.42;4.30;;;;;;;18.54;47.36;155999.70;1729191;83;21236;-75
2021/01/03 12:11:39;;;;;;;8.05;5.10;;;;;;;18.62;47.41;156020.81;1731485;81;21436;-73
2021/01/03 12:14:12;;;;;;;8.63;5.42;;;;;;;18.70;47.37;156040.63;1729594;81;21712;-77